createdAt,value
2023-02-22T00:02:13.571Z,18.33
2023-02-22T00:04:43.805Z,20.48
2023-02-22T00:07:23.946Z,21.60
2023-02-22T00:09:58.979Z,19.65
2023-02-22T00:12:31.477Z,16.90
2023-02-22T00:15:07.962Z,17.05
2023-02-22T00:17:43.122Z,14.25
2023-02-22T00:20:19.186Z,15.48
2023-02-22T00:22:51.963Z,16.65
2023-02-22T00:25:23.501Z,16.35
2023-02-22T00:27:56.438Z,14.38
2023-02-22T00:30:29.505Z,13.02
2023-02-22T00:33:03.201Z,16.55
2023-02-22T00:35:34.566Z,15.02
2023-02-22T00:38:06.472Z,14.00
2023-02-22T00:40:38.883Z,16.05
2023-02-22T00:43:09.601Z,19.27
2023-02-22T00:45:41.443Z,13.73
2023-02-22T00:48:14.790Z,13.13
2023-02-22T00:50:45.185Z,13.90
2023-02-22T00:53:15.634Z,19.80
2023-02-22T00:55:46.017Z,14.10
2023-02-22T00:58:16.365Z,16.40
2023-02-22T01:00:48.617Z,14.40
2023-02-22T01:03:25.572Z,17.83
2023-02-22T01:05:55.883Z,18.83
2023-02-22T01:08:31.340Z,17.05
2023-02-22T01:11:01.758Z,16.30
2023-02-22T01:13:33.245Z,15.60
2023-02-22T01:16:03.620Z,17.25
2023-02-22T01:18:37.141Z,19.65
2023-02-22T01:21:08.761Z,17.25
2023-02-22T01:23:39.474Z,16.17
2023-02-22T01:26:09.938Z,16.45
2023-02-22T01:28:41.772Z,12.48
2023-02-22T01:31:12.815Z,20.77
2023-02-22T01:33:46.740Z,14.40
2023-02-22T01:36:19.761Z,12.65
2023-02-22T01:38:50.128Z,15.90
2023-02-22T01:41:20.596Z,13.23
2023-02-22T01:43:51.116Z,15.68
2023-02-22T01:46:27.090Z,12.13
2023-02-22T01:49:05.931Z,16.55
2023-02-22T01:51:39.856Z,15.85
2023-02-22T01:56:50.642Z,14.57
2023-02-22T01:59:24.632Z,17.15
2023-02-22T02:01:55.134Z,13.63
2023-02-22T02:04:31.514Z,15.63
2023-02-22T02:07:06.142Z,13.70
2023-02-22T02:09:42.950Z,20.17
2023-02-22T02:12:15.852Z,13.32
2023-02-22T02:14:46.531Z,14.45
2023-02-22T02:17:20.762Z,14.32
2023-02-22T02:20:02.866Z,16.40
2023-02-22T02:22:49.624Z,14.20
2023-02-22T02:25:51.476Z,11.82
2023-02-22T02:28:45.986Z,14.05
2023-02-22T02:34:18.206Z,21.08
2023-02-22T02:37:04.639Z,22.48
2023-02-22T02:39:51.771Z,12.95
2023-02-22T02:42:29.482Z,14.23
2023-02-22T02:45:23.896Z,14.55
2023-02-22T02:48:10.210Z,16.50
2023-02-22T02:50:52.613Z,15.68
2023-02-22T02:53:30.401Z,18.85
2023-02-22T02:56:06.038Z,19.75
2023-02-22T02:58:49.615Z,13.35
2023-02-22T03:01:39.214Z,12.73
2023-02-22T03:04:24.321Z,12.25
2023-02-22T03:07:18.664Z,21.15
2023-02-22T03:10:03.083Z,15.52
2023-02-22T03:12:46.052Z,16.63
2023-02-22T03:15:30.641Z,17.17
2023-02-22T03:18:09.450Z,19.45
2023-02-22T03:20:48.891Z,13.82
2023-02-22T03:23:28.384Z,12.85
2023-02-22T03:26:05.677Z,21.45
2023-02-22T03:28:43.552Z,11.43
2023-02-22T03:31:20.396Z,16.67
2023-02-22T03:33:55.527Z,15.18
2023-02-22T03:36:31.083Z,17.10
2023-02-22T03:39:07.915Z,13.75
2023-02-22T03:41:42.470Z,15.13
2023-02-22T03:44:17.114Z,21.73
2023-02-22T03:46:52.812Z,18.30
2023-02-22T03:49:33.402Z,17.88
2023-02-22T03:52:08.041Z,24.33
2023-02-22T03:54:44.337Z,26.98
2023-02-22T03:57:23.758Z,22.15
2023-02-22T04:00:02.613Z,26.92
2023-02-22T04:02:44.010Z,22.70
2023-02-22T04:05:25.965Z,24.13
2023-02-22T04:08:00.354Z,24.10
2023-02-22T04:10:35.224Z,27.15
2023-02-22T04:13:07.375Z,22.27
2023-02-22T04:15:42.820Z,19.15
2023-02-22T04:18:16.260Z,24.00
2023-02-22T04:20:50.457Z,19.38
2023-02-22T04:24:04.002Z,19.35
2023-02-22T04:26:39.157Z,18.02
2023-02-22T04:29:11.188Z,20.55
2023-02-22T04:31:45.006Z,23.80
2023-02-22T04:34:22.455Z,16.40
2023-02-22T04:36:54.563Z,15.70
2023-02-22T04:39:35.046Z,20.10
2023-02-22T04:42:12.823Z,17.08
2023-02-22T04:44:45.004Z,21.73
2023-02-22T04:47:15.866Z,15.50
2023-02-22T04:49:47.142Z,16.77
2023-02-22T04:52:18.476Z,15.15
2023-02-22T04:54:49.441Z,15.05
2023-02-22T04:57:22.480Z,17.08
2023-02-22T04:59:54.425Z,16.55
2023-02-22T05:02:27.465Z,14.60
2023-02-22T05:05:00.920Z,26.00
2023-02-22T05:07:31.148Z,26.95
2023-02-22T05:10:03.588Z,39.42
2023-02-22T05:12:36.867Z,53.30
2023-02-22T05:15:08.389Z,35.40
2023-02-22T05:17:41.376Z,35.08
2023-02-22T05:20:19.873Z,32.90
2023-02-22T05:22:52.631Z,28.25
2023-02-22T05:25:23.763Z,30.38
2023-02-22T05:27:59.981Z,29.95
2023-02-22T05:30:33.747Z,26.73
2023-02-22T05:35:34.900Z,37.72
2023-02-22T05:38:05.369Z,26.30
2023-02-22T05:40:36.734Z,22.85
2023-02-22T05:43:10.312Z,21.60
2023-02-22T05:45:41.105Z,22.40
2023-02-22T05:48:13.314Z,32.90
2023-02-22T05:50:44.267Z,26.33
2023-02-22T05:53:14.989Z,20.38
2023-02-22T05:55:46.571Z,22.25
2023-02-22T05:58:21.461Z,21.80
2023-02-22T06:00:52.709Z,23.50
2023-02-22T06:03:23.414Z,24.50
2023-02-22T06:05:53.846Z,24.85
2023-02-22T06:08:24.533Z,22.17
2023-02-22T06:10:55.005Z,25.35
2023-02-22T06:13:28.357Z,21.40
2023-02-22T06:15:59.630Z,19.98
2023-02-22T06:18:31.227Z,19.50
2023-02-22T06:21:02.466Z,22.23
2023-02-22T06:23:32.850Z,25.83
2023-02-22T06:26:03.237Z,21.08
2023-02-22T06:28:36.796Z,35.63
2023-02-22T06:31:07.981Z,22.10
2023-02-22T06:33:38.617Z,19.20
2023-02-22T06:36:10.735Z,17.80
2023-02-22T06:38:41.764Z,27.38
2023-02-22T06:41:13.111Z,23.05
2023-02-22T06:43:46.692Z,20.58
2023-02-22T06:46:17.397Z,18.92
2023-02-22T06:48:47.790Z,64.18
2023-02-22T06:51:18.405Z,84.57
2023-02-22T06:53:48.963Z,48.47
2023-02-22T06:56:19.466Z,116.07
2023-02-22T06:58:53.008Z,91.28
2023-02-22T07:01:27.102Z,29.75
2023-02-22T07:04:02.801Z,24.25
2023-02-22T07:06:33.636Z,49.13
2023-02-22T07:09:04.265Z,60.63
2023-02-22T07:11:35.142Z,109.05
2023-02-22T07:14:09.627Z,29.38
2023-02-22T07:16:40.568Z,95.88
2023-02-22T07:19:11.147Z,45.30
2023-02-22T07:21:41.580Z,100.25
2023-02-22T07:24:12.322Z,62.75
2023-02-22T07:26:43.826Z,147.35
2023-02-22T07:29:17.400Z,68.55
2023-02-22T07:31:48.088Z,27.75
2023-02-22T07:34:18.716Z,80.00
2023-02-22T07:36:49.381Z,80.43
2023-02-22T07:39:20.398Z,22.67
2023-02-22T07:41:51.096Z,17.60
2023-02-22T07:44:30.761Z,18.38
2023-02-22T07:47:03.583Z,18.70
2023-02-22T07:49:34.680Z,21.70
2023-02-22T07:52:06.970Z,21.83
2023-02-22T07:54:37.784Z,22.10
2023-02-22T07:57:08.589Z,20.17
2023-02-22T07:59:42.184Z,17.40
2023-02-22T08:02:19.617Z,161.10
2023-02-22T08:04:50.101Z,18.38
2023-02-22T08:07:20.677Z,24.42
2023-02-22T08:09:51.171Z,171.55
2023-02-22T08:12:21.819Z,38.17
2023-02-22T08:14:55.010Z,220.13
2023-02-22T08:17:25.378Z,75.55
2023-02-22T08:19:56.490Z,16.58
2023-02-22T08:22:27.943Z,20.15
2023-02-22T08:25:13.256Z,77.20
2023-02-22T08:27:50.583Z,31.27
2023-02-22T08:30:46.452Z,40.20
2023-02-22T08:33:20.687Z,35.20
2023-02-22T08:35:54.035Z,99.95
2023-02-22T08:38:29.712Z,88.70
2023-02-22T08:41:04.132Z,103.25
2023-02-22T08:43:35.798Z,45.17
2023-02-22T08:46:29.783Z,40.38
2023-02-22T08:49:03.696Z,16.88
2023-02-22T08:51:43.595Z,20.95
2023-02-22T08:54:19.426Z,19.40
2023-02-22T08:56:53.768Z,24.98
2023-02-22T09:02:07.476Z,14.07
2023-02-22T09:04:51.450Z,24.80
2023-02-22T09:07:29.169Z,21.30
2023-02-22T09:09:59.466Z,25.35
2023-02-22T09:12:29.571Z,33.38
2023-02-22T09:14:59.912Z,21.95
2023-02-22T09:17:32.983Z,22.63
2023-02-22T09:20:06.341Z,17.38
2023-02-22T09:22:37.184Z,19.10
2023-02-22T09:25:16.586Z,46.67
2023-02-22T09:27:49.736Z,49.65
2023-02-22T09:30:26.679Z,65.93
2023-02-22T09:33:02.771Z,77.75
2023-02-22T09:35:36.687Z,45.85
2023-02-22T09:38:12.654Z,35.38
2023-02-22T09:40:47.528Z,34.70
2023-02-22T09:43:43.945Z,28.90
2023-02-22T09:46:25.857Z,32.85
2023-02-22T09:49:08.595Z,41.65
2023-02-22T09:51:46.013Z,37.67
2023-02-22T09:54:22.888Z,43.50
2023-02-22T09:57:01.489Z,40.53
2023-02-22T09:59:40.048Z,69.60
2023-02-22T10:02:33.003Z,34.90
2023-02-22T10:05:24.394Z,69.25
2023-02-22T10:13:32.807Z,71.03
2023-02-22T10:16:13.213Z,56.70
2023-02-22T10:19:08.726Z,28.08
2023-02-22T10:22:01.078Z,25.63
2023-02-22T10:24:47.399Z,26.38
2023-02-22T10:27:24.142Z,20.65
2023-02-22T10:32:57.555Z,21.88
2023-02-22T10:35:31.075Z,15.45
2023-02-22T10:38:20.887Z,24.15
2023-02-22T10:41:07.128Z,19.88
2023-02-22T10:43:45.876Z,21.70
2023-02-22T10:46:32.874Z,12.30
2023-02-22T10:52:21.221Z,21.85
2023-02-22T10:55:24.817Z,16.80
2023-02-22T11:01:06.332Z,15.85
2023-02-22T11:07:13.216Z,19.25
2023-02-22T11:10:02.717Z,13.65
2023-02-22T11:12:53.633Z,12.63
2023-02-22T11:15:33.444Z,18.27
2023-02-22T11:18:09.960Z,18.13
2023-02-22T11:20:43.403Z,26.23
2023-02-22T11:23:18.223Z,15.43
2023-02-22T11:25:49.569Z,13.75
2023-02-22T11:28:31.353Z,16.00
2023-02-22T11:31:18.137Z,26.30
2023-02-22T11:33:58.375Z,19.35
2023-02-22T11:36:41.453Z,16.02
2023-02-22T11:39:27.030Z,22.03
2023-02-22T11:42:00.006Z,21.35
2023-02-22T11:44:48.083Z,16.70
2023-02-22T11:47:23.894Z,16.92
2023-02-22T11:49:54.415Z,18.77
2023-02-22T11:52:34.957Z,28.20
2023-02-22T11:55:36.512Z,18.98
2023-02-22T11:58:40.832Z,20.02
2023-02-22T12:04:46.467Z,23.60
2023-02-22T12:07:56.502Z,18.48
2023-02-22T12:10:42.213Z,17.67
2023-02-22T12:13:29.216Z,14.85
2023-02-22T12:16:09.156Z,19.13
2023-02-22T12:18:51.577Z,15.35
2023-02-22T12:21:25.451Z,16.17
2023-02-22T12:24:03.614Z,57.42
2023-02-22T12:26:37.576Z,34.65
2023-02-22T12:29:16.121Z,198.07
2023-02-22T12:31:49.615Z,136.43
2023-02-22T12:34:33.140Z,70.30
2023-02-22T12:37:13.580Z,152.38
2023-02-22T12:39:54.042Z,43.75
2023-02-22T12:42:31.173Z,17.88
2023-02-22T12:45:08.925Z,74.82
2023-02-22T12:47:49.446Z,90.78
2023-02-22T12:50:27.407Z,339.50
2023-02-22T12:53:06.437Z,97.95
2023-02-22T12:55:45.922Z,22.52
2023-02-22T12:58:27.387Z,15.43
2023-02-22T13:01:12.939Z,27.05
2023-02-22T13:03:46.909Z,14.43
2023-02-22T13:06:43.664Z,21.85
2023-02-22T13:09:32.922Z,14.63
2023-02-22T13:12:11.072Z,21.88
2023-02-22T13:14:53.821Z,45.97
2023-02-22T13:17:32.437Z,33.58
2023-02-22T13:20:06.639Z,61.92
2023-02-22T13:22:47.876Z,25.73
2023-02-22T13:25:25.205Z,18.02
2023-02-22T13:28:02.382Z,12.40
2023-02-22T13:30:42.734Z,16.98
2023-02-22T13:33:28.572Z,15.02
2023-02-22T13:36:20.568Z,26.15
2023-02-22T13:39:16.973Z,42.75
2023-02-22T13:42:03.023Z,27.08
2023-02-22T13:45:15.950Z,90.78
2023-02-22T13:48:11.737Z,140.13
2023-02-22T13:51:08.876Z,118.13
2023-02-22T13:53:47.365Z,38.92
2023-02-22T13:56:24.146Z,19.67
2023-02-22T13:58:57.981Z,147.25
2023-02-22T14:01:43.171Z,23.70
2023-02-22T14:04:26.680Z,48.47
2023-02-22T14:07:01.234Z,23.92
2023-02-22T14:09:49.083Z,22.80
2023-02-22T14:12:49.684Z,21.38
2023-02-22T14:15:30.509Z,51.00
2023-02-22T14:18:04.439Z,29.67
2023-02-22T14:20:37.216Z,18.45
2023-02-22T14:23:31.350Z,17.73
2023-02-22T14:29:03.739Z,14.73
2023-02-22T14:32:03.144Z,18.25
2023-02-22T14:34:53.891Z,23.63
2023-02-22T14:37:28.115Z,21.67
2023-02-22T14:40:13.279Z,14.43
2023-02-22T14:42:49.194Z,9.82
2023-02-22T14:45:31.649Z,13.07
2023-02-22T14:48:14.176Z,11.77
2023-02-22T14:50:52.586Z,13.40
2023-02-22T14:53:30.750Z,12.73
2023-02-22T14:56:07.812Z,32.05
2023-02-22T14:58:45.740Z,17.98
2023-02-22T15:01:49.056Z,16.42
2023-02-22T15:04:35.280Z,17.40
2023-02-22T15:07:27.748Z,15.25
2023-02-22T15:10:21.694Z,13.02
2023-02-22T15:13:09.244Z,10.75
2023-02-22T15:15:48.914Z,18.23
2023-02-22T15:18:29.805Z,21.77
2023-02-22T15:21:12.172Z,13.07
2023-02-22T15:23:46.725Z,13.85
2023-02-22T15:26:22.627Z,13.15
2023-02-22T15:28:57.867Z,37.92
2023-02-22T15:31:36.344Z,38.70
2023-02-22T15:34:24.834Z,30.58
2023-02-22T15:37:00.242Z,29.02
2023-02-22T15:39:44.625Z,18.50
2023-02-22T15:42:21.331Z,23.10
2023-02-22T15:44:55.118Z,23.58
2023-02-22T15:47:27.761Z,24.95
2023-02-22T15:50:21.657Z,21.05
2023-02-22T15:53:01.258Z,31.60
2023-02-22T15:55:34.001Z,16.98
2023-02-22T15:58:13.716Z,20.23
2023-02-22T16:00:50.658Z,18.50
2023-02-22T16:03:28.931Z,18.77
2023-02-22T16:06:02.271Z,34.78
2023-02-22T16:08:54.421Z,25.45
2023-02-22T16:11:30.384Z,24.95
2023-02-22T16:14:08.753Z,28.75
2023-02-22T16:16:44.137Z,29.83
2023-02-22T16:19:42.724Z,35.25
2023-02-22T16:22:36.927Z,37.55
2023-02-22T16:25:31.227Z,26.48
2023-02-22T16:30:41.977Z,39.50
2023-02-22T16:33:16.972Z,28.17
2023-02-22T16:35:52.670Z,69.68
2023-02-22T16:38:24.045Z,44.15
2023-02-22T16:41:03.046Z,32.08
2023-02-22T16:43:36.865Z,29.65
2023-02-22T16:46:13.572Z,31.92
2023-02-22T16:49:02.813Z,28.98
2023-02-22T16:51:50.634Z,30.92
2023-02-22T16:57:49.864Z,44.28
2023-02-22T17:00:42.301Z,35.30
2023-02-22T17:03:19.607Z,46.65
2023-02-22T17:05:51.446Z,31.75
2023-02-22T17:08:28.581Z,32.30
2023-02-22T17:11:05.688Z,42.03
2023-02-22T17:13:47.643Z,38.20
2023-02-22T17:16:23.093Z,30.03
2023-02-22T17:18:54.615Z,33.33
2023-02-22T17:21:28.800Z,33.50
2023-02-22T17:24:12.525Z,31.02
2023-02-22T17:26:46.055Z,35.10
2023-02-22T17:29:25.894Z,33.25
2023-02-22T17:32:07.732Z,36.40
2023-02-22T17:34:51.174Z,39.00
2023-02-22T17:37:27.029Z,42.95
2023-02-22T17:40:04.072Z,45.92
2023-02-22T17:42:37.813Z,41.53
2023-02-22T17:45:19.858Z,43.80
2023-02-22T17:47:50.797Z,43.70
2023-02-22T17:50:22.437Z,30.55
2023-02-22T17:52:54.568Z,35.97
2023-02-22T17:55:29.597Z,48.00
2023-02-22T17:58:02.535Z,47.33
2023-02-22T18:00:54.359Z,55.63
2023-02-22T18:03:31.320Z,60.00
2023-02-22T18:06:10.232Z,60.53
2023-02-22T18:08:41.810Z,76.47
2023-02-22T18:14:03.986Z,56.80
2023-02-22T18:16:39.928Z,56.67
2023-02-22T18:19:15.892Z,52.38
2023-02-22T18:21:56.641Z,56.75
2023-02-22T18:24:33.468Z,52.53
2023-02-22T18:27:10.764Z,64.57
2023-02-22T18:29:43.601Z,54.78
2023-02-22T18:32:26.654Z,49.97
2023-02-22T18:35:13.646Z,60.70
2023-02-22T18:37:53.438Z,55.47
2023-02-22T18:40:26.559Z,61.77
2023-02-22T18:43:02.891Z,50.60
2023-02-22T18:45:38.807Z,47.17
2023-02-22T18:48:36.129Z,61.35
2023-02-22T18:51:25.830Z,37.92
2023-02-22T18:54:00.799Z,36.97
2023-02-22T18:56:34.234Z,43.17
2023-02-22T18:59:08.232Z,44.28
2023-02-22T19:01:40.976Z,35.35
2023-02-22T19:04:14.964Z,41.83
2023-02-22T19:06:50.619Z,32.20
2023-02-22T19:09:22.186Z,38.90
2023-02-22T19:11:57.520Z,37.70
2023-02-22T19:14:28.706Z,32.45
2023-02-22T19:17:02.798Z,37.38
2023-02-22T19:19:39.122Z,44.50
2023-02-22T19:22:11.314Z,45.55
2023-02-22T19:24:45.706Z,189.98
2023-02-22T19:27:19.336Z,176.15
2023-02-22T19:29:50.824Z,91.32
2023-02-22T19:32:27.905Z,60.20
2023-02-22T19:35:16.474Z,70.75
2023-02-22T19:38:05.381Z,66.70
2023-02-22T19:40:44.602Z,64.93
2023-02-22T19:43:15.403Z,68.00
2023-02-22T19:45:47.881Z,50.03
2023-02-22T19:48:22.512Z,61.47
2023-02-22T19:50:58.336Z,56.33
2023-02-22T19:53:28.780Z,45.03
2023-02-22T19:56:02.642Z,48.63
2023-02-22T19:58:36.968Z,51.53
2023-02-22T20:01:27.075Z,43.50
2023-02-22T20:04:07.473Z,50.55
2023-02-22T20:06:44.130Z,60.95
2023-02-22T20:09:20.062Z,51.90
2023-02-22T20:11:54.952Z,52.50
2023-02-22T20:14:32.112Z,47.15
2023-02-22T20:17:05.494Z,49.33
2023-02-22T20:19:43.143Z,55.75
2023-02-22T20:22:22.942Z,45.70
2023-02-22T20:25:01.632Z,48.92
2023-02-22T20:27:35.186Z,50.95
2023-02-22T20:30:23.498Z,44.67
2023-02-22T20:33:20.179Z,54.83
2023-02-22T20:36:01.394Z,41.63
2023-02-22T20:38:34.322Z,43.60
2023-02-22T20:41:08.799Z,42.20
2023-02-22T20:43:43.211Z,49.15
2023-02-22T20:46:14.977Z,37.40
2023-02-22T20:48:46.248Z,40.40
2023-02-22T20:51:30.353Z,44.47
2023-02-22T21:00:01.285Z,50.25
2023-02-22T21:02:31.758Z,39.40
2023-02-22T21:05:13.243Z,40.95
2023-02-22T21:07:44.925Z,44.53
2023-02-22T21:10:17.416Z,34.30
2023-02-22T21:12:51.045Z,45.75
2023-02-22T21:28:27.698Z,49.37
2023-02-22T21:38:09.697Z,49.53
2023-02-22T21:40:42.651Z,46.40
2023-02-22T21:43:13.351Z,41.07
2023-02-22T21:45:44.694Z,40.97
2023-02-22T21:59:19.274Z,41.17
2023-02-22T22:01:51.575Z,39.20
2023-02-22T22:05:24.121Z,37.28
2023-02-22T22:07:59.818Z,39.53
2023-02-22T22:10:33.327Z,45.38
2023-02-22T22:13:03.974Z,39.80
2023-02-22T22:15:37.936Z,39.58
2023-02-22T22:18:22.637Z,55.35
2023-02-22T22:20:53.071Z,88.55
2023-02-22T22:23:26.818Z,108.05
2023-02-22T22:26:07.184Z,106.20
2023-02-22T22:28:37.745Z,110.95
2023-02-22T22:31:08.957Z,120.68
2023-02-22T22:33:40.239Z,113.95
2023-02-22T22:36:12.695Z,146.07
2023-02-22T22:38:47.206Z,153.63
2023-02-22T22:41:22.425Z,147.30
2023-02-22T22:43:54.373Z,173.93
2023-02-22T22:46:26.335Z,158.93
2023-02-22T22:52:02.611Z,146.93
2023-02-22T22:54:35.944Z,159.10
2023-02-22T22:57:18.910Z,160.32
2023-02-22T22:59:54.276Z,176.75
2023-02-22T23:02:27.220Z,121.85
2023-02-22T23:05:13.305Z,84.35
2023-02-22T23:07:43.718Z,50.65
2023-02-22T23:13:54.376Z,54.53
2023-02-22T23:16:25.271Z,49.60
2023-02-22T23:18:56.111Z,59.88
2023-02-22T23:21:27.235Z,44.78
2023-02-22T23:24:01.786Z,50.38
2023-02-22T23:30:18.914Z,55.22
2023-02-22T23:32:49.879Z,57.75
2023-02-22T23:35:21.783Z,54.70
2023-02-22T23:38:33.981Z,62.60
2023-02-22T23:41:06.978Z,63.17
2023-02-22T23:43:40.816Z,63.30
2023-02-22T23:48:47.621Z,61.85
2023-02-22T23:51:25.827Z,75.35
2023-02-22T23:53:57.502Z,66.82
2023-02-22T23:56:32.059Z,60.33
2023-02-22T23:59:07.327Z,58.33
